Time;durP1;ratioP1;P1;durP2;ratioP2;P2;SDS_P1;SDS_P2;PMS_P1;PMS_P2;Temp;Humidity;BMP_temperature;BMP_pressure;BME280_temperature;BME280_humidity;BME280_pressure;Samples;Min_cycle;Max_cycle;Signal;HPM_P1;HPM_P2
2022/02/18 00:00:54;;;;;;;8.93;2.83;;;3.50;84.00;;;;;;4978354;28;20022;-82
2022/02/18 00:03:21;;;;;;;20.95;7.88;;;3.40;83.10;;;;;;4995871;28;20029;-82
2022/02/18 00:05:47;;;;;;;44.22;13.65;;;3.50;80.80;;;;;;4994726;28;20066;-82
2022/02/18 00:08:13;;;;;;;14.25;5.55;;;3.50;81.40;;;;;;4994985;28;20027;-90
2022/02/18 00:10:41;;;;;;;8.60;4.40;;;3.40;81.60;;;;;;4978124;28;20038;-82
2022/02/18 00:13:07;;;;;;;8.45;3.42;;;3.50;80.80;;;;;;4978596;28;20033;-82
2022/02/18 00:15:33;;;;;;;6.10;3.15;;;3.40;81.00;;;;;;4995563;28;20458;-83
2022/02/18 00:18:01;;;;;;;8.43;3.53;;;3.40;80.80;;;;;;4995323;28;20018;-82
2022/02/18 00:20:27;;;;;;;16.95;6.82;;;3.40;80.50;;;;;;4995383;28;20030;-95
2022/02/18 00:22:53;;;;;;;7.50;3.17;;;3.30;80.70;;;;;;4978180;28;20027;-82
2022/02/18 00:25:20;;;;;;;6.05;2.20;;;3.40;80.90;;;;;;4995475;28;20032;-94
2022/02/18 00:27:45;;;;;;;10.20;4.85;;;3.40;79.10;;;;;;4977954;28;20053;-92
2022/02/18 00:30:11;;;;;;;39.47;14.15;;;3.50;78.80;;;;;;4978196;28;20023;-93
2022/02/18 00:32:38;;;;;;;11.93;4.30;;;3.50;78.60;;;;;;4978192;28;20022;-82
2022/02/18 00:35:05;;;;;;;16.77;7.32;;;3.60;75.90;;;;;;4978070;28;20399;-94
2022/02/18 00:37:31;;;;;;;14.50;6.57;;;3.70;74.10;;;;;;4978119;28;20022;-92
2022/02/18 00:39:57;;;;;;;12.52;5.78;;;3.70;73.40;;;;;;4977859;28;20030;-94
2022/02/18 00:42:23;;;;;;;31.33;11.52;;;3.70;73.50;;;;;;4977820;28;20117;-82
2022/02/18 00:44:49;;;;;;;5.65;3.05;;;3.60;73.90;;;;;;4995015;28;20022;-83
2022/02/18 00:47:15;;;;;;;10.05;3.38;;;3.70;73.30;;;;;;4994707;28;20022;-90
2022/02/18 00:49:41;;;;;;;23.10;8.30;;;3.70;72.80;;;;;;4977449;28;20369;-87
2022/02/18 00:52:06;;;;;;;18.77;5.78;;;3.80;71.20;;;;;;4977408;28;20053;-93
2022/02/18 00:54:32;;;;;;;45.63;15.80;;;3.90;70.90;;;;;;4977295;28;20491;-83
2022/02/18 00:56:58;;;;;;;8.07;3.15;;;3.90;71.30;;;;;;4994546;28;20400;-82
2022/02/18 00:59:24;;;;;;;50.80;20.08;;;3.90;70.60;;;;;;4994881;28;20408;-83
2022/02/18 01:01:51;;;;;;;11.48;3.13;;;3.90;70.70;;;;;;4977165;28;20022;-82
2022/02/18 01:04:17;;;;;;;34.35;11.27;;;3.90;71.50;;;;;;4994489;28;20027;-94
2022/02/18 01:06:44;;;;;;;11.43;4.68;;;3.90;70.30;;;;;;4977010;28;20043;-82
2022/02/18 01:09:11;;;;;;;11.73;5.05;;;3.90;71.20;;;;;;4977113;28;20022;-83
2022/02/18 01:11:37;;;;;;;8.77;3.13;;;3.90;71.60;;;;;;4977387;28;20030;-93
2022/02/18 01:14:04;;;;;;;6.80;2.90;;;3.90;72.30;;;;;;4977806;28;20021;-82
2022/02/18 01:16:30;;;;;;;11.27;3.75;;;3.90;72.70;;;;;;4994893;28;20412;-82
2022/02/18 01:18:57;;;;;;;2.33;1.98;;;3.90;73.20;;;;;;4994804;28;20030;-91
2022/02/18 01:21:23;;;;;;;2.78;1.80;;;3.90;73.50;;;;;;4977553;28;20085;-95
2022/02/18 01:23:49;;;;;;;5.40;2.90;;;3.90;73.50;;;;;;4977573;28;20018;-82
2022/02/18 01:26:15;;;;;;;5.10;2.03;;;3.90;74.60;;;;;;4994049;28;20029;-82
2022/02/18 01:28:41;;;;;;;3.83;2.40;;;3.80;74.90;;;;;;4976748;28;20026;-91
2022/02/18 01:31:07;;;;;;;2.30;1.65;;;3.80;74.70;;;;;;4977478;28;20061;-93
2022/02/18 01:33:32;;;;;;;4.88;1.67;;;3.80;75.10;;;;;;4976759;28;20437;-82
2022/02/18 01:35:58;;;;;;;4.15;2.20;;;3.80;75.40;;;;;;4993307;28;20117;-83
2022/02/18 01:38:24;;;;;;;11.35;2.70;;;3.80;75.20;;;;;;4994435;28;20054;-94
2022/02/18 01:40:49;;;;;;;2.47;2.03;;;3.80;75.20;;;;;;4977238;28;20018;-94
2022/02/18 01:43:15;;;;;;;7.05;2.95;;;3.80;76.00;;;;;;4977025;28;20022;-90
2022/02/18 01:45:42;;;;;;;5.90;2.10;;;3.70;76.00;;;;;;4976998;28;20022;-93
2022/02/18 01:48:08;;;;;;;7.95;1.98;;;3.70;75.90;;;;;;4977126;28;20022;-95
2022/02/18 01:50:34;;;;;;;2.67;1.80;;;3.60;75.80;;;;;;4976631;28;20534;-82
2022/02/18 01:53:00;;;;;;;4.78;2.17;;;3.50;75.40;;;;;;4976847;28;20054;-90
2022/02/18 01:55:27;;;;;;;3.10;2.70;;;3.50;75.50;;;;;;4976845;28;20054;-83
2022/02/18 01:57:55;;;;;;;11.00;4.80;;;3.50;75.90;;;;;;4993998;28;20033;-94
2022/02/18 02:00:24;;;;;;;6.22;2.05;;;3.40;75.10;;;;;;4976250;28;20037;-83
2022/02/18 02:02:50;;;;;;;5.38;1.92;;;3.30;75.40;;;;;;4993806;28;20033;-93
2022/02/18 02:05:16;;;;;;;4.20;2.42;;;3.30;75.00;;;;;;4975765;28;20031;-92
2022/02/18 02:07:43;;;;;;;6.00;2.60;;;3.30;74.60;;;;;;4976742;28;20019;-82
2022/02/18 02:10:13;;;;;;;7.65;2.88;;;3.20;75.30;;;;;;4976144;28;20030;-82
2022/02/18 02:12:50;;;;;;;9.05;3.75;;;3.10;75.50;;;;;;4993851;28;20018;-93
2022/02/18 02:15:16;;;;;;;8.35;3.78;;;3.10;75.50;;;;;;4976179;28;20468;-82
2022/02/18 02:17:42;;;;;;;2.97;1.95;;;3.00;75.40;;;;;;4977997;28;20217;-82
2022/02/18 02:20:11;;;;;;;5.70;2.58;;;3.00;76.40;;;;;;4997750;28;20105;-82
2022/02/18 02:22:37;;;;;;;4.57;2.15;;;2.90;75.90;;;;;;4980014;28;20103;-93
2022/02/18 02:25:03;;;;;;;2.95;2.28;;;3.00;75.30;;;;;;4980037;28;20026;-83
2022/02/18 02:27:30;;;;;;;5.65;3.10;;;3.00;75.20;;;;;;4997571;28;20037;-94
2022/02/18 02:29:56;;;;;;;11.63;4.05;;;3.00;75.40;;;;;;4980330;28;20038;-82
2022/02/18 02:32:22;;;;;;;5.45;2.40;;;3.00;75.40;;;;;;4997616;28;20031;-94
2022/02/18 02:34:48;;;;;;;5.00;1.98;;;3.00;76.20;;;;;;4979829;28;20025;-94
2022/02/18 02:37:14;;;;;;;2.30;1.73;;;3.10;76.60;;;;;;4979934;28;20396;-82
2022/02/18 02:39:40;;;;;;;8.07;3.53;;;3.10;76.40;;;;;;4997531;28;20101;-92
2022/02/18 02:42:07;;;;;;;5.45;2.47;;;3.10;76.70;;;;;;4979678;28;20074;-81
2022/02/18 02:44:34;;;;;;;4.85;2.03;;;3.10;76.30;;;;;;4997184;28;20022;-94
2022/02/18 02:47:00;;;;;;;5.50;1.80;;;3.10;75.90;;;;;;4979705;28;20436;-82
2022/02/18 02:49:25;;;;;;;12.63;3.80;;;3.20;75.70;;;;;;4979685;28;20057;-82
2022/02/18 02:51:51;;;;;;;6.68;2.33;;;3.20;75.20;;;;;;4980111;28;20023;-83
2022/02/18 02:54:17;;;;;;;4.45;2.38;;;3.20;76.20;;;;;;4997286;28;20157;-92
2022/02/18 02:56:43;;;;;;;5.78;2.20;;;3.20;74.80;;;;;;4979857;28;20076;-93
2022/02/18 02:59:09;;;;;;;4.20;2.60;;;3.20;75.00;;;;;;4979856;28;20058;-92
2022/02/18 03:01:36;;;;;;;4.15;2.17;;;3.20;75.20;;;;;;4979429;28;20026;-92
2022/02/18 03:04:01;;;;;;;2.10;1.90;;;3.20;75.60;;;;;;4979915;28;20044;-82
2022/02/18 03:06:27;;;;;;;5.82;3.60;;;3.20;75.00;;;;;;4996368;28;20054;-82
2022/02/18 03:08:54;;;;;;;11.82;3.67;;;3.20;74.70;;;;;;4979485;28;20681;-92
2022/02/18 03:11:21;;;;;;;11.38;4.88;;;3.20;73.50;;;;;;4996752;28;20033;-82
2022/02/18 03:13:49;;;;;;;16.75;6.60;;;3.20;73.20;;;;;;4996658;28;20024;-92
2022/02/18 03:16:16;;;;;;;4.43;2.08;;;3.30;72.80;;;;;;4979124;28;20038;-82
2022/02/18 03:18:42;;;;;;;8.05;3.78;;;3.20;73.60;;;;;;4996488;28;20114;-82
2022/02/18 03:21:08;;;;;;;4.88;1.98;;;3.30;73.50;;;;;;4996712;28;20026;-93
2022/02/18 03:23:35;;;;;;;4.35;1.73;;;3.20;73.30;;;;;;4996624;28;20022;-82
2022/02/18 03:26:00;;;;;;;2.72;1.98;;;3.20;73.50;;;;;;4997048;28;20022;-82
2022/02/18 03:28:26;;;;;;;18.45;7.30;;;3.20;73.30;;;;;;4995735;28;20036;-93
2022/02/18 03:30:52;;;;;;;3.13;2.00;;;3.20;73.10;;;;;;4979002;28;20088;-83
2022/02/18 03:33:18;;;;;;;10.80;3.63;;;3.20;73.10;;;;;;4978890;28;20033;-90
2022/02/18 03:35:43;;;;;;;6.25;2.75;;;3.20;73.10;;;;;;4979374;28;20038;-94
2022/02/18 03:38:09;;;;;;;28.52;10.88;;;3.20;73.00;;;;;;4978950;28;20022;-94
2022/02/18 03:40:35;;;;;;;7.05;3.10;;;3.30;73.20;;;;;;4978903;28;20026;-82
2022/02/18 03:43:01;;;;;;;8.95;5.18;;;3.20;72.90;;;;;;4996059;28;20432;-93
2022/02/18 03:45:27;;;;;;;7.68;2.80;;;3.20;73.10;;;;;;4978745;28;20026;-81
2022/02/18 03:47:53;;;;;;;28.85;10.43;;;3.30;73.60;;;;;;4995959;28;20037;-82
2022/02/18 03:50:19;;;;;;;28.75;11.18;;;3.30;73.30;;;;;;4995736;28;20037;-82
2022/02/18 03:52:45;;;;;;;10.13;4.43;;;3.30;72.90;;;;;;4996152;28;20034;-89
2022/02/18 03:55:11;;;;;;;14.18;4.88;;;3.30;72.60;;;;;;4978749;28;20034;-82
2022/02/18 03:57:37;;;;;;;6.28;1.95;;;3.30;72.80;;;;;;4978409;28;20022;-83
2022/02/18 04:00:10;;;;;;;12.18;6.20;;;3.40;71.20;;;;;;4995487;28;20026;-83
2022/02/18 04:02:36;;;;;;;7.93;3.15;;;3.40;72.00;;;;;;4995907;28;20480;-82
2022/02/18 04:05:02;;;;;;;20.48;6.60;;;3.40;72.30;;;;;;4978764;28;20117;-83
2022/02/18 04:07:28;;;;;;;12.02;5.40;;;3.40;71.40;;;;;;4978621;28;20073;-91
2022/02/18 04:09:54;;;;;;;5.28;3.50;;;3.40;71.80;;;;;;4978420;28;20074;-85
2022/02/18 04:12:19;;;;;;;12.88;5.28;;;3.40;72.50;;;;;;4978591;28;20116;-94
2022/02/18 04:14:45;;;;;;;3.38;1.70;;;3.40;72.00;;;;;;4978622;28;20026;-89
2022/02/18 04:17:11;;;;;;;6.43;1.80;;;3.40;72.10;;;;;;4978599;28;20499;-95
2022/02/18 04:19:37;;;;;;;5.18;2.10;;;3.30;72.60;;;;;;4978146;28;20026;-84
2022/02/18 04:22:03;;;;;;;5.00;2.83;;;3.40;72.20;;;;;;4995740;28;20030;-94
2022/02/18 04:24:30;;;;;;;8.13;2.83;;;3.30;72.80;;;;;;4977650;28;20018;-83
2022/02/18 04:26:55;;;;;;;3.38;1.50;;;3.30;72.10;;;;;;4995628;28;20033;-94
2022/02/18 04:29:21;;;;;;;2.92;2.05;;;3.30;72.60;;;;;;4978188;28;20052;-83
2022/02/18 04:31:47;;;;;;;11.80;5.72;;;3.30;72.80;;;;;;4995034;28;20055;-93
2022/02/18 04:34:13;;;;;;;19.10;7.70;;;3.30;73.50;;;;;;4977830;28;20412;-82
2022/02/18 04:36:39;;;;;;;8.35;2.78;;;3.30;73.80;;;;;;4994984;28;20081;-95
2022/02/18 04:39:05;;;;;;;6.60;2.83;;;3.30;73.00;;;;;;4977395;28;20015;-83
2022/02/18 04:41:31;;;;;;;7.78;2.83;;;3.20;73.30;;;;;;4977161;28;20070;-82
2022/02/18 04:43:56;;;;;;;7.78;2.60;;;3.20;73.50;;;;;;4995059;28;20030;-83
2022/02/18 04:46:22;;;;;;;19.27;6.68;;;3.20;72.50;;;;;;4995054;28;20038;-95
2022/02/18 04:48:48;;;;;;;52.08;14.32;;;3.30;72.30;;;;;;4977336;28;20018;-88
2022/02/18 04:51:14;;;;;;;488.52;162.60;;;3.30;72.60;;;;;;4977753;28;20030;-82
2022/02/18 04:53:40;;;;;;;362.75;113.00;;;3.20;72.70;;;;;;4976746;28;20022;-83
2022/02/18 04:56:08;;;;;;;26.42;7.15;;;3.30;72.40;;;;;;4994755;28;20042;-81
2022/02/18 04:58:33;;;;;;;45.85;13.23;;;3.20;71.50;;;;;;4994564;28;20023;-82
2022/02/18 05:00:59;;;;;;;7.80;2.53;;;3.30;71.40;;;;;;4977244;28;20507;-82
2022/02/18 05:03:25;;;;;;;11.88;4.32;;;3.20;72.10;;;;;;4994761;28;20038;-83
2022/02/18 05:05:51;;;;;;;6.53;2.17;;;3.20;71.60;;;;;;4994478;28;20097;-82
2022/02/18 05:08:17;;;;;;;54.75;16.77;;;3.20;71.50;;;;;;4994244;28;20030;-84
2022/02/18 05:10:42;;;;;;;11.57;4.97;;;3.20;72.10;;;;;;4994667;28;20502;-82
2022/02/18 05:13:08;;;;;;;12.18;3.97;;;3.20;71.60;;;;;;4995068;28;20014;-83
2022/02/18 05:15:34;;;;;;;14.75;5.05;;;3.20;71.90;;;;;;4994748;28;20031;-83
2022/02/18 05:18:01;;;;;;;8.40;3.35;;;3.10;71.50;;;;;;4994630;28;20049;-83
2022/02/18 05:20:27;;;;;;;9.75;3.60;;;3.10;71.60;;;;;;4993901;28;20022;-83
2022/02/18 05:22:53;;;;;;;9.70;3.53;;;3.10;71.00;;;;;;4994063;28;20128;-93
2022/02/18 05:25:18;;;;;;;8.10;2.85;;;3.10;70.50;;;;;;4977162;28;20423;-93
2022/02/18 05:27:44;;;;;;;4.75;2.58;;;3.10;70.40;;;;;;4976990;28;20045;-92
2022/02/18 05:30:10;;;;;;;7.82;3.30;;;3.10;70.90;;;;;;4977130;28;20029;-82
2022/02/18 05:32:36;;;;;;;14.75;5.35;;;3.00;70.70;;;;;;4994136;28;20080;-92
2022/02/18 05:35:02;;;;;;;8.15;2.80;;;3.00;71.50;;;;;;4976995;28;20121;-90
2022/02/18 05:37:27;;;;;;;15.00;5.28;;;3.00;71.50;;;;;;4976649;28;20120;-90
2022/02/18 05:39:53;;;;;;;8.73;3.13;;;2.90;72.10;;;;;;4977068;28;20022;-82
2022/02/18 05:42:19;;;;;;;15.10;6.63;;;2.90;71.40;;;;;;4994171;28;20061;-95
2022/02/18 05:44:44;;;;;;;5.88;2.42;;;2.90;71.50;;;;;;4976693;28;20108;-94
2022/02/18 05:47:10;;;;;;;5.63;3.03;;;2.90;72.00;;;;;;4976865;28;20034;-82
2022/02/18 05:49:36;;;;;;;5.25;3.05;;;2.90;71.70;;;;;;4994149;28;20026;-83
2022/02/18 05:52:02;;;;;;;5.30;3.25;;;2.90;71.50;;;;;;4976664;28;20030;-94
2022/02/18 05:54:27;;;;;;;6.90;3.20;;;2.90;71.60;;;;;;4976681;28;20030;-83
2022/02/18 05:56:53;;;;;;;4.53;3.17;;;2.90;72.10;;;;;;4993780;28;20096;-82
2022/02/18 05:59:20;;;;;;;6.95;2.80;;;2.80;72.30;;;;;;4994277;28;20073;-92
2022/02/18 06:01:46;;;;;;;7.28;3.67;;;2.80;72.10;;;;;;4976167;28;20015;-95
2022/02/18 06:04:12;;;;;;;6.47;2.47;;;2.80;72.20;;;;;;4976088;28;20015;-82
2022/02/18 06:06:42;;;;;;;5.93;2.88;;;2.90;72.00;;;;;;4993222;28;20104;-90
2022/02/18 06:09:07;;;;;;;10.52;3.38;;;2.90;72.30;;;;;;4976625;28;20019;-96
2022/02/18 06:11:33;;;;;;;5.50;2.90;;;2.80;72.80;;;;;;4960410;28;20030;-89
2022/02/18 06:13:59;;;;;;;9.25;3.60;;;2.90;72.30;;;;;;4996153;28;20023;-83
2022/02/18 06:16:25;;;;;;;5.97;3.75;;;2.90;72.50;;;;;;4978516;28;20043;-82
2022/02/18 06:18:51;;;;;;;4.55;2.75;;;2.90;72.20;;;;;;4980662;28;20027;-82
2022/02/18 06:21:18;;;;;;;4.63;2.50;;;2.90;72.40;;;;;;4973032;28;20143;-96
2022/02/18 06:23:44;;;;;;;13.20;5.75;;;3.00;72.20;;;;;;4955632;28;20042;-82
2022/02/18 06:26:10;;;;;;;11.60;4.00;;;2.90;72.70;;;;;;4973256;28;20031;-90
2022/02/18 06:28:36;;;;;;;8.10;2.80;;;2.80;72.60;;;;;;4957257;28;20038;-82
2022/02/18 06:31:03;;;;;;;6.93;2.90;;;2.80;73.30;;;;;;4973741;28;20393;-95
2022/02/18 06:33:28;;;;;;;9.63;3.50;;;2.70;73.20;;;;;;4955566;28;20033;-81
2022/02/18 06:35:54;;;;;;;8.73;3.63;;;2.70;73.80;;;;;;4972917;28;20400;-89
2022/02/18 06:38:20;;;;;;;6.13;3.45;;;2.70;74.10;;;;;;4974665;28;20404;-94
2022/02/18 06:40:46;;;;;;;11.02;6.00;;;2.60;74.10;;;;;;4975525;28;20034;-94
2022/02/18 06:43:11;;;;;;;7.15;3.42;;;2.70;73.80;;;;;;4973807;28;20034;-82
2022/02/18 06:45:37;;;;;;;9.57;3.15;;;2.70;74.30;;;;;;4931446;28;20042;-92
2022/02/18 06:48:04;;;;;;;9.05;3.50;;;2.70;73.80;;;;;;4953175;28;20405;-94
2022/02/18 06:50:31;;;;;;;7.05;3.95;;;2.80;73.50;;;;;;4970668;28;20587;-81
2022/02/18 06:52:56;;;;;;;8.82;4.38;;;2.90;74.10;;;;;;4971812;28;20134;-82
2022/02/18 06:55:24;;;;;;;7.07;3.95;;;3.00;74.10;;;;;;4972557;28;20054;-93
2022/02/18 06:57:52;;;;;;;4.10;2.92;;;3.10;73.60;;;;;;4962664;28;20031;-94
2022/02/18 07:00:18;;;;;;;9.05;3.35;;;3.20;71.80;;;;;;4964380;28;20587;-89
2022/02/18 07:02:44;;;;;;;8.70;3.70;;;3.20;72.60;;;;;;4969981;28;20019;-87
2022/02/18 07:05:12;;;;;;;8.13;4.22;;;3.20;72.00;;;;;;4975349;28;20027;-82
2022/02/18 07:07:38;;;;;;;9.43;4.43;;;3.10;72.00;;;;;;4976516;28;20060;-82
2022/02/18 07:10:05;;;;;;;6.45;2.97;;;3.10;72.30;;;;;;4976687;28;20031;-91
2022/02/18 07:12:31;;;;;;;7.63;3.72;;;3.10;72.30;;;;;;4975560;28;20019;-82
2022/02/18 07:14:57;;;;;;;13.05;5.28;;;3.20;72.20;;;;;;4958168;28;20082;-82
2022/02/18 07:17:24;;;;;;;7.50;2.80;;;3.30;72.50;;;;;;4956489;29;20393;-81
2022/02/18 07:19:51;;;;;;;12.85;4.25;;;3.40;71.20;;;;;;4955812;29;20027;-95
2022/02/18 07:22:17;;;;;;;20.98;8.57;;;3.50;71.30;;;;;;4956187;29;20031;-82
2022/02/18 07:24:45;;;;;;;3.63;2.30;;;3.60;71.80;;;;;;4955921;29;20513;-92
2022/02/18 07:27:10;;;;;;;12.00;5.47;;;3.60;70.40;;;;;;4955853;29;20027;-93
2022/02/18 07:29:36;;;;;;;12.10;5.90;;;3.80;70.20;;;;;;4956200;29;20038;-83
2022/02/18 07:32:02;;;;;;;4.53;2.45;;;3.90;69.90;;;;;;4957311;28;20031;-82
2022/02/18 07:34:28;;;;;;;6.43;3.22;;;3.90;69.70;;;;;;4955998;28;20027;-93
2022/02/18 07:36:54;;;;;;;7.35;3.55;;;4.00;69.50;;;;;;4955922;29;20039;-93
2022/02/18 07:39:19;;;;;;;10.63;4.45;;;4.10;69.60;;;;;;4956038;28;20025;-81
2022/02/18 07:41:45;;;;;;;9.75;4.60;;;4.20;69.40;;;;;;4962227;28;20023;-94
2022/02/18 07:44:11;;;;;;;7.38;2.78;;;4.20;68.40;;;;;;4975568;28;20123;-82
2022/02/18 07:46:37;;;;;;;6.13;3.03;;;4.30;68.50;;;;;;4974693;28;20412;-95
2022/02/18 07:49:03;;;;;;;11.05;2.83;;;4.40;68.30;;;;;;4975067;28;20018;-85
2022/02/18 07:51:28;;;;;;;7.72;2.58;;;4.40;67.40;;;;;;4975177;28;20070;-82
2022/02/18 07:53:54;;;;;;;12.00;5.55;;;4.40;67.60;;;;;;4976471;28;20089;-82
2022/02/18 07:56:20;;;;;;;8.10;4.07;;;4.50;67.80;;;;;;4978132;28;20038;-96
2022/02/18 07:58:45;;;;;;;17.30;7.88;;;4.50;67.10;;;;;;4976986;28;20027;-82
2022/02/18 08:01:17;;;;;;;13.70;6.57;;;4.60;66.70;;;;;;4973621;28;20026;-82
2022/02/18 08:03:45;;;;;;;8.27;4.55;;;4.60;67.10;;;;;;4972358;28;20428;-82
2022/02/18 08:06:10;;;;;;;6.75;2.45;;;4.60;66.30;;;;;;4973432;28;20051;-82
2022/02/18 08:08:38;;;;;;;4.90;2.38;;;4.70;66.90;;;;;;4975970;28;20030;-82
2022/02/18 08:11:04;;;;;;;5.90;2.53;;;4.70;66.20;;;;;;4975443;28;20026;-95
2022/02/18 08:13:30;;;;;;;5.18;2.40;;;4.70;65.60;;;;;;4971317;28;20473;-83
2022/02/18 08:15:56;;;;;;;6.88;2.35;;;4.80;65.90;;;;;;4975313;28;20039;-82
2022/02/18 08:18:21;;;;;;;6.97;2.58;;;4.80;65.30;;;;;;4976056;28;20055;-89
2022/02/18 08:20:48;;;;;;;7.60;3.38;;;4.80;65.50;;;;;;4975582;28;20030;-83
2022/02/18 08:23:13;;;;;;;10.20;2.95;;;5.00;66.00;;;;;;4976329;28;20031;-83
2022/02/18 08:25:39;;;;;;;6.45;2.78;;;5.10;65.10;;;;;;4975913;28;20031;-93
2022/02/18 08:28:05;;;;;;;9.55;2.50;;;5.10;64.70;;;;;;4974786;28;20515;-83
2022/02/18 08:30:31;;;;;;;8.45;3.13;;;5.00;64.70;;;;;;4972429;28;20027;-96
2022/02/18 08:32:57;;;;;;;5.05;2.50;;;5.10;64.70;;;;;;4974550;28;20058;-89
2022/02/18 08:35:23;;;;;;;5.85;2.20;;;5.00;64.70;;;;;;4968025;28;20031;-95
2022/02/18 08:37:49;;;;;;;7.13;2.58;;;4.90;64.70;;;;;;4964540;28;20442;-83
2022/02/18 08:40:14;;;;;;;5.97;2.97;;;5.00;65.10;;;;;;4962876;28;20424;-95
2022/02/18 08:42:40;;;;;;;7.72;3.17;;;5.00;64.70;;;;;;4965439;28;20019;-87
2022/02/18 08:45:06;;;;;;;4.10;1.83;;;5.10;64.70;;;;;;4962768;28;20023;-86
2022/02/18 08:47:33;;;;;;;3.88;2.80;;;5.20;64.70;;;;;;4966238;28;20452;-94
2022/02/18 08:49:59;;;;;;;8.48;2.78;;;5.10;64.10;;;;;;4959741;28;20019;-92
2022/02/18 08:52:24;;;;;;;9.60;2.08;;;5.20;64.50;;;;;;4955374;29;20031;-83
2022/02/18 08:54:50;;;;;;;9.70;2.97;;;5.30;63.90;;;;;;4961042;28;20439;-93
2022/02/18 08:57:16;;;;;;;4.80;2.13;;;5.50;63.90;;;;;;4963534;28;20038;-84
2022/02/18 08:59:42;;;;;;;5.32;2.70;;;5.70;63.90;;;;;;4965257;28;20029;-83
2022/02/18 09:02:10;;;;;;;4.28;1.90;;;5.50;62.70;;;;;;4975577;28;20023;-83
2022/02/18 09:04:36;;;;;;;11.77;2.47;;;5.40;63.00;;;;;;4973917;28;20460;-83
2022/02/18 09:07:02;;;;;;;7.20;2.13;;;5.20;63.20;;;;;;4974028;28;20572;-94
2022/02/18 09:09:27;;;;;;;4.53;1.60;;;5.20;63.70;;;;;;4974339;28;20091;-83
2022/02/18 09:11:53;;;;;;;7.18;2.05;;;5.20;63.90;;;;;;4974169;28;20019;-83
2022/02/18 09:14:19;;;;;;;4.38;2.22;;;5.30;64.20;;;;;;4975040;28;20023;-83
2022/02/18 09:16:45;;;;;;;5.90;2.20;;;5.30;64.00;;;;;;4975304;28;20030;-95
2022/02/18 09:19:11;;;;;;;25.27;9.45;;;5.40;63.20;;;;;;4974552;28;20023;-84
2022/02/18 09:21:37;;;;;;;6.82;3.55;;;5.30;62.30;;;;;;4973963;28;20081;-93
2022/02/18 09:24:03;;;;;;;6.18;3.13;;;5.40;63.50;;;;;;4976158;28;20022;-84
2022/02/18 09:26:33;;;;;;;7.95;2.20;;;5.40;62.80;;;;;;4974502;28;20437;-96
2022/02/18 09:28:59;;;;;;;5.95;2.20;;;5.30;62.00;;;;;;4976502;28;20108;-83
2022/02/18 09:31:25;;;;;;;7.68;1.88;;;5.20;61.30;;;;;;4974202;28;20027;-95
2022/02/18 09:33:51;;;;;;;5.80;2.17;;;5.10;61.50;;;;;;4976083;28;20455;-96
2022/02/18 09:36:17;;;;;;;3.75;2.13;;;5.40;62.40;;;;;;4978776;28;20068;-83
2022/02/18 09:38:43;;;;;;;6.05;2.10;;;5.70;62.50;;;;;;4976275;28;20030;-84
2022/02/18 09:41:09;;;;;;;4.63;2.05;;;5.70;60.50;;;;;;4978448;28;20038;-84
2022/02/18 09:43:39;;;;;;;6.65;2.25;;;5.60;60.50;;;;;;4979978;28;20045;-87
2022/02/18 09:46:05;;;;;;;6.43;1.92;;;5.70;61.10;;;;;;4977552;28;20181;-96
2022/02/18 09:48:35;;;;;;;6.43;1.65;;;5.70;61.60;;;;;;4979428;28;20038;-88
2022/02/18 09:51:02;;;;;;;3.28;2.30;;;6.00;60.70;;;;;;4980465;28;20018;-95
2022/02/18 09:53:27;;;;;;;4.78;2.83;;;6.20;60.80;;;;;;4979180;28;20026;-93
2022/02/18 09:55:55;;;;;;;5.38;2.28;;;6.50;60.60;;;;;;4984353;28;20027;-84
2022/02/18 09:58:22;;;;;;;6.60;1.92;;;6.70;59.70;;;;;;4977885;28;20153;-84
2022/02/18 10:00:48;;;;;;;5.60;1.90;;;6.60;57.80;;;;;;4974504;28;20354;-83
2022/02/18 10:03:14;;;;;;;8.38;2.20;;;6.60;57.70;;;;;;4973691;28;20027;-96
2022/02/18 10:05:40;;;;;;;4.72;1.95;;;6.90;59.20;;;;;;4976522;28;20043;-83
2022/02/18 10:08:10;;;;;;;5.57;2.20;;;7.00;57.50;;;;;;4975474;28;20022;-96
2022/02/18 10:10:38;;;;;;;5.65;2.28;;;6.80;56.00;;;;;;4974874;28;20019;-83
2022/02/18 10:13:04;;;;;;;5.05;2.13;;;6.60;57.00;;;;;;4974011;28;20062;-84
2022/02/18 10:15:44;;;;;;;4.88;2.33;;;6.50;57.20;;;;;;4974419;28;20126;-83
2022/02/18 10:18:10;;;;;;;3.83;1.90;;;6.30;57.60;;;;;;4972776;28;20485;-84
2022/02/18 10:20:40;;;;;;;7.07;2.20;;;6.40;57.30;;;;;;4973219;28;20102;-83
2022/02/18 10:23:08;;;;;;;6.15;2.63;;;6.40;57.20;;;;;;4976244;28;20106;-83
2022/02/18 10:25:36;;;;;;;3.92;2.00;;;6.60;57.40;;;;;;4973434;28;20050;-83
2022/02/18 10:28:04;;;;;;;3.25;1.67;;;6.90;58.00;;;;;;4974420;28;20023;-96
2022/02/18 10:30:33;;;;;;;4.63;1.50;;;7.10;56.70;;;;;;4981415;28;20030;-96
2022/02/18 10:33:13;;;;;;;4.63;3.13;;;7.10;56.20;;;;;;4975083;28;20081;-83
2022/02/18 10:35:49;;;;;;;5.53;2.15;;;7.30;56.80;;;;;;4979695;28;20030;-95
2022/02/18 10:38:16;;;;;;;5.18;2.22;;;7.50;56.80;;;;;;4980635;28;20023;-96
2022/02/18 10:40:43;;;;;;;3.78;2.72;;;7.50;54.90;;;;;;4979428;28;20023;-83
2022/02/18 10:43:10;;;;;;;3.40;2.10;;;7.50;55.00;;;;;;4980306;28;20062;-83
2022/02/18 10:45:55;;;;;;;2.50;1.90;;;7.60;55.20;;;;;;4978151;28;20041;-90
2022/02/18 10:48:23;;;;;;;2.35;1.83;;;7.30;55.20;;;;;;4980298;28;20019;-83
2022/02/18 10:51:04;;;;;;;2.83;1.83;;;7.50;55.50;;;;;;4981969;28;20026;-83
2022/02/18 10:53:36;;;;;;;4.65;1.95;;;7.60;53.90;;;;;;4983825;28;20030;-83
2022/02/18 10:56:08;;;;;;;7.32;2.45;;;7.60;53.90;;;;;;4977493;28;20023;-83
2022/02/18 10:58:39;;;;;;;5.47;2.03;;;7.50;54.70;;;;;;4979116;28;20038;-83
2022/02/18 11:01:12;;;;;;;5.60;2.30;;;7.30;54.60;;;;;;4977737;28;20027;-96
2022/02/18 11:03:43;;;;;;;6.47;3.63;;;7.40;55.50;;;;;;4963554;28;20043;-82
2022/02/18 11:06:11;;;;;;;7.53;3.72;;;7.30;55.50;;;;;;4980610;28;20441;-96
2022/02/18 11:08:39;;;;;;;1.80;1.67;;;7.30;55.30;;;;;;4973209;28;20046;-96
2022/02/18 11:11:10;;;;;;;8.82;2.97;;;7.30;55.30;;;;;;4961234;29;20026;-83
2022/02/18 11:13:45;;;;;;;4.22;1.90;;;7.50;55.00;;;;;;4973792;28;20035;-95
2022/02/18 11:16:15;;;;;;;4.85;2.28;;;7.60;54.60;;;;;;4961166;29;20022;-83
2022/02/18 11:21:17;;;;;;;6.97;3.17;;;7.90;55.10;;;;;;4951824;28;20059;-80
2022/02/18 11:23:43;;;;;;;7.57;4.47;;;8.00;54.20;;;;;;4956524;28;20054;-73
2022/02/18 11:26:14;;;;;;;9.05;3.42;;;7.80;53.80;;;;;;4955907;28;20035;-74
2022/02/18 11:28:41;;;;;;;9.45;3.22;;;7.60;54.10;;;;;;4954230;28;20055;-74
2022/02/18 11:31:13;;;;;;;5.00;3.30;;;7.20;54.30;;;;;;4956340;28;20469;-74
2022/02/18 11:33:45;;;;;;;11.38;5.05;;;7.00;54.90;;;;;;4954098;28;20047;-78
2022/02/18 11:36:31;;;;;;;4.43;1.80;;;6.80;55.30;;;;;;4938042;29;20113;-79
2022/02/18 11:39:25;;;;;;;9.48;6.45;;;6.60;54.70;;;;;;4939093;29;20058;-79
2022/02/18 11:41:56;;;;;;;10.52;4.07;;;6.60;55.50;;;;;;4956282;28;20019;-74
2022/02/18 11:44:33;;;;;;;4.30;1.73;;;6.50;55.70;;;;;;4936890;28;20031;-73
2022/02/18 11:47:16;;;;;;;12.27;5.95;;;6.70;56.50;;;;;;4956149;28;20042;-79
2022/02/18 11:49:42;;;;;;;;;;;7.00;56.70;;;;;;4956129;28;20130;-78
2022/02/18 11:52:10;;;;;;;9.90;5.80;;;7.30;56.70;;;;;;4938862;29;19932;-72
2022/02/18 11:54:36;;;;;;;10.25;4.97;;;7.60;56.60;;;;;;4955538;28;20027;-73
2022/02/18 11:57:19;;;;;;;62.38;29.13;;;7.90;55.20;;;;;;4956151;28;20019;-73
2022/02/18 12:00:03;;;;;;;69.57;24.17;;;7.90;53.90;;;;;;4955610;28;20098;-78
2022/02/18 12:02:42;;;;;;;95.10;48.67;;;7.90;53.80;;;;;;4955527;28;20027;-79
2022/02/18 12:05:14;;;;;;;111.82;53.40;;;7.90;54.00;;;;;;4956131;28;20049;-73
2022/02/18 12:07:42;;;;;;;36.38;13.10;;;8.10;55.20;;;;;;4955271;28;20047;-73
2022/02/18 12:10:14;;;;;;;64.90;38.42;;;8.00;53.80;;;;;;4954714;28;20038;-72
2022/02/18 12:12:41;;;;;;;68.07;30.27;;;7.80;53.90;;;;;;4955861;28;20030;-73
2022/02/18 12:15:26;;;;;;;37.88;16.92;;;7.90;54.30;;;;;;4954970;28;20035;-73
2022/02/18 12:18:07;;;;;;;52.42;24.40;;;8.10;54.30;;;;;;4954409;28;20054;-72
2022/02/18 12:20:41;;;;;;;19.27;9.80;;;8.30;53.50;;;;;;4954914;28;20058;-73
2022/02/18 12:23:41;;;;;;;21.30;8.93;;;8.40;52.40;;;;;;4955675;28;20143;-72
2022/02/18 12:26:24;;;;;;;19.35;7.82;;;8.50;52.50;;;;;;4945099;28;20497;-73
2022/02/18 12:29:11;;;;;;;23.15;8.30;;;8.40;51.80;;;;;;4937313;28;20092;-73
2022/02/18 12:31:50;;;;;;;13.93;7.40;;;8.30;52.10;;;;;;4951866;28;20422;-73
2022/02/18 12:34:33;;;;;;;27.75;14.05;;;8.40;52.50;;;;;;4920487;29;20027;-73
2022/02/18 12:36:59;;;;;;;20.08;8.65;;;8.50;52.70;;;;;;4920792;29;20045;-73
2022/02/18 12:39:39;;;;;;;13.85;4.30;;;8.60;52.80;;;;;;4946031;28;20400;-73
2022/02/18 12:42:06;;;;;;;12.75;7.22;;;8.70;51.50;;;;;;4928076;29;20046;-73
2022/02/18 12:44:32;;;;;;;12.48;4.70;;;8.70;50.40;;;;;;4945478;28;20059;-72
2022/02/18 12:46:58;;;;;;;6.35;3.08;;;8.60;50.40;;;;;;4933931;29;20172;-72
2022/02/18 12:49:39;;;;;;;9.15;4.25;;;8.50;50.30;;;;;;4935524;29;20498;-78
2022/02/18 12:52:06;;;;;;;6.60;3.70;;;8.30;51.50;;;;;;4936054;29;20083;-72
2022/02/18 12:54:51;;;;;;;12.40;5.88;;;8.10;52.40;;;;;;4937789;29;20043;-73
2022/02/18 12:57:23;;;;;;;12.20;4.40;;;8.00;53.00;;;;;;4923351;29;20024;-73